M/V Raymond M. — WDC4224 — position and weather

sailwx.info

Track history (hours):
 
Tides and Currents Weather Stations Pressure Air Temp Water Temp Dewpoint Dewpoint Depression Visibility Wind Speed Wind Dir Waves Ship Positions

M/V Raymond M.

Owner: RM Leasing, Clute, TX. More information available from US FCC via Universal Licensing System and Coast Guard Vessel Documentation Center.

Last reported at 2018-Jun-24 20:29 UTC. Time now 2018-Jun-24 20:39 UTC.
Position N 29°47' W 092°11'.

Length 45 m; draft 2.2 m.

Type: Passenger vessel. MMSI: 367021170.

Date/timePositionNaut miles runAvg speedWind from/ knotsBaromVisibWave heightAir tempDewpointWater temp
2018-Jun-24 20:29N 29°47' W 092°11'0 0.0
2018-Jun-24 19:59N 29°47' W 092°11'0 0.0
2018-Jun-24 19:29N 29°47' W 092°11'0 0.0
2018-Jun-24 18:59N 29°47' W 092°11'1 2.7
2018-Jun-24 18:30N 29°46' W 092°12'611.3
2018-Jun-24 18:00N 29°41' W 092°15'2 0.2
2018-Jun-24 05:28N 29°39' W 092°16'510.8
2018-Jun-24 05:01N 29°44' W 092°15'4 8.6
2018-Jun-24 04:31N 29°47' W 092°11'0 0.9
2018-Jun-24 04:01N 29°47' W 092°11'0 0.0
2018-Jun-24 03:31N 29°47' W 092°11'0 0.0
2018-Jun-24 03:01N 29°47' W 092°11'0 0.1
2018-Jun-24 02:30N 29°47' W 092°11'0 0.0
2018-Jun-24 02:00N 29°47' W 092°11'0 0.0
2018-Jun-24 01:30N 29°47' W 092°11'0 0.0
2018-Jun-24 00:11N 29°47' W 092°11'1 3.0
2018-Jun-24 00:01N 29°47' W 092°11'5 9.5
2018-Jun-23 23:30N 29°43' W 092°15'6 0.5
2018-Jun-23 10:42N 29°37' W 092°17'311.2
2018-Jun-23 10:27N 29°40' W 092°15'510.9
2018-Jun-23 09:59N 29°45' W 092°13'3 0.3
2018-Jun-22 23:51N 29°47' W 092°11'1 2.3
2018-Jun-22 23:30N 29°46' W 092°11'510.8
2018-Jun-22 23:00N 29°42' W 092°15'5 0.4
2018-Jun-22 08:54N 29°37' W 092°17'410.9
2018-Jun-22 08:30N 29°41' W 092°15'510.7
2018-Jun-22 08:00N 29°46' W 092°12'1 3.0
2018-Jun-22 07:30N 29°47' W 092°11'0 0.0
2018-Jun-22 06:58N 29°47' W 092°11'0 0.0
2018-Jun-22 06:28N 29°47' W 092°11'0 0.0
2018-Jun-22 05:58N 29°47' W 092°11'0 0.0
2018-Jun-21 08:02N 29°47' W 092°11'0 0.0
2018-Jun-21 07:59N 29°47' W 092°11'0 0.0
2018-Jun-21 07:29N 29°47' W 092°11'0 0.0
2018-Jun-21 06:59N 29°47' W 092°11'0 0.0
2018-Jun-21 06:29N 29°47' W 092°11'0 0.0
2018-Jun-21 05:59N 29°47' W 092°11'0 0.0
2018-Jun-21 05:29N 29°47' W 092°11'0 0.0
2018-Jun-21 04:59N 29°47' W 092°11'0 0.0
2018-Jun-21 04:29N 29°47' W 092°11'0 0.0
2018-Jun-21 03:59N 29°47' W 092°11'0 0.0
2018-Jun-21 03:29N 29°47' W 092°11'0 0.0
2018-Jun-21 02:59N 29°47' W 092°11'0 0.0
2018-Jun-21 02:29N 29°47' W 092°11'0 0.0
2018-Jun-21 01:59N 29°47' W 092°11'0 0.0
2018-Jun-21 01:29N 29°47' W 092°11'0 0.0
2018-Jun-21 00:59N 29°47' W 092°11'0 0.0
2018-Jun-21 00:29N 29°47' W 092°11'0 0.0
2018-Jun-20 23:59N 29°47' W 092°11'0 0.0
2018-Jun-20 23:29N 29°47' W 092°11'0 0.0
2018-Jun-20 22:59N 29°47' W 092°11'0 0.0
2018-Jun-20 22:29N 29°47' W 092°11'0 0.0
2018-Jun-20 21:59N 29°47' W 092°11'0 0.0
2018-Jun-20 21:29N 29°47' W 092°11'0 0.0
2018-Jun-20 20:59N 29°47' W 092°11'0 0.2
2018-Jun-20 20:29N 29°47' W 092°11'2 5.2
2018-Jun-20 20:00N 29°45' W 092°13'710.0
2018-Jun-20 19:18N 29°38' W 092°16'2 0.2
2018-Jun-20 07:28N 29°36' W 092°17'510.6
2018-Jun-20 07:00N 29°41' W 092°15'5 9.4
2018-Jun-20 06:30N 29°45' W 092°13'2 0.5
2018-Jun-20 01:46N 29°47' W 092°11'0 0.2
2018-Jun-20 01:28N 29°47' W 092°11'0 0.0
2018-Jun-20 00:58N 29°47' W 092°11'0 0.0
2018-Jun-20 00:28N 29°47' W 092°11'0 0.0
2018-Jun-19 23:58N 29°47' W 092°11'0 0.0
2018-Jun-19 23:30N 29°47' W 092°11'3 5.6
2018-Jun-19 23:00N 29°45' W 092°13'5 9.7
2018-Jun-19 22:29N 29°40' W 092°15'3 0.2
2018-Jun-19 06:14N 29°37' W 092°17'210.4
2018-Jun-19 06:01N 29°39' W 092°16'5 9.4
2018-Jun-19 05:31N 29°44' W 092°14'4 8.5
2018-Jun-19 05:01N 29°47' W 092°11'0 0.8
2018-Jun-19 04:28N 29°47' W 092°11'0 0.0
2018-Jun-19 03:58N 29°47' W 092°11'0 0.0
2018-Jun-19 03:28N 29°47' W 092°11'0 0.0
2018-Jun-19 02:58N 29°47' W 092°11'0 0.0
2018-Jun-19 02:28N 29°47' W 092°11'0 0.0
2018-Jun-19 01:58N 29°47' W 092°11'0 0.0
2018-Jun-19 01:28N 29°47' W 092°11'0 0.0
2018-Jun-19 00:58N 29°47' W 092°11'0 0.0
2018-Jun-19 00:28N 29°47' W 092°11'0 0.0
2018-Jun-18 23:58N 29°47' W 092°11'0 0.0
2018-Jun-18 23:28N 29°47' W 092°11'0 0.0
2018-Jun-18 22:58N 29°47' W 092°11'0 0.0
2018-Jun-18 22:28N 29°47' W 092°11'0 0.0
2018-Jun-18 21:58N 29°47' W 092°11'0 0.0
2018-Jun-18 21:28N 29°47' W 092°11'0 0.0
2018-Jun-18 20:58N 29°47' W 092°11'0 0.0
2018-Jun-18 20:28N 29°47' W 092°11'0 0.0
2018-Jun-18 19:58N 29°47' W 092°11'0 0.0
2018-Jun-18 19:28N 29°47' W 092°11'0 0.0
2018-Jun-18 18:58N 29°47' W 092°11'0 0.0
2018-Jun-18 18:28N 29°47' W 092°11'0 0.0
2018-Jun-18 17:58N 29°47' W 092°11'0 0.1
2018-Jun-18 17:30N 29°47' W 092°11'0 0.3
2018-Jun-18 17:00N 29°47' W 092°11'0 0.0
2018-Jun-18 16:30N 29°47' W 092°11'0 0.0
2018-Jun-18 16:00N 29°47' W 092°11'0 0.0
2018-Jun-18 15:30N 29°47' W 092°11'0 0.0
2018-Jun-18 15:00N 29°47' W 092°11'0 0.0
2018-Jun-18 14:30N 29°47' W 092°11'0 0.0
2018-Jun-18 14:00N 29°47' W 092°11'0 0.0
2018-Jun-18 13:30N 29°47' W 092°11'0 0.0
2018-Jun-18 13:00N 29°47' W 092°11'0 0.0
2018-Jun-18 12:30N 29°47' W 092°11'0 0.0
2018-Jun-18 12:00N 29°47' W 092°11'0 0.0
2018-Jun-18 11:24N 29°47' W 092°11'0 0.0
2018-Jun-18 11:00N 29°47' W 092°11'0 0.0
2018-Jun-18 10:30N 29°47' W 092°11'0 0.0
2018-Jun-18 10:00N 29°47' W 092°11'0 0.0
2018-Jun-18 09:30N 29°47' W 092°11'0 0.0
2018-Jun-18 09:00N 29°47' W 092°11'0 0.0
2018-Jun-18 08:30N 29°47' W 092°11'0 0.0
2018-Jun-18 08:00N 29°47' W 092°11'0 0.0
2018-Jun-18 07:30N 29°47' W 092°11'0 0.0
2018-Jun-18 07:00N 29°47' W 092°11'0 0.0
2018-Jun-18 06:30N 29°47' W 092°11'0 0.0
2018-Jun-18 06:00N 29°47' W 092°11'0 0.0
2018-Jun-18 05:30N 29°47' W 092°11'0 0.0
2018-Jun-18 05:00N 29°47' W 092°11'0 0.0
2018-Jun-18 04:30N 29°47' W 092°11'0 0.0
2018-Jun-18 03:57N 29°47' W 092°11'0 0.0
2018-Jun-18 03:30N 29°47' W 092°11'0 0.0
2018-Jun-18 03:00N 29°47' W 092°11'0 0.0
2018-Jun-18 02:30N 29°47' W 092°11'0 0.0
2018-Jun-18 02:00N 29°47' W 092°11'0 0.0
2018-Jun-18 01:30N 29°47' W 092°11'0 0.0
2018-Jun-18 01:00N 29°47' W 092°11'0 0.0
2018-Jun-18 00:30N 29°47' W 092°11'0 0.0
2018-Jun-18 00:00N 29°47' W 092°11'0 0.0
2018-Jun-17 23:30N 29°47' W 092°11'0 0.0
2018-Jun-17 23:00N 29°47' W 092°11'0 0.0
2018-Jun-17 22:30N 29°47' W 092°11'0 0.0
2018-Jun-17 21:59N 29°47' W 092°11'0 0.0
2018-Jun-17 21:29N 29°47' W 092°11'0 0.0
2018-Jun-17 20:59N 29°47' W 092°11'0 0.0
2018-Jun-17 20:29N 29°47' W 092°11'0 0.0
2018-Jun-17 19:59N 29°47' W 092°11'0 0.0
2018-Jun-17 19:29N 29°47' W 092°11'0 0.0
2018-Jun-17 18:59N 29°47' W 092°11'0 0.0
2018-Jun-17 18:29N 29°47' W 092°11'0 0.0
2018-Jun-17 17:59N 29°47' W 092°11'0 0.0
2018-Jun-17 17:29N 29°47' W 092°11'0 0.0
2018-Jun-17 16:59N 29°47' W 092°11'0 0.0
2018-Jun-17 16:29N 29°47' W 092°11'0 0.0
2018-Jun-17 15:59N 29°47' W 092°11'0 0.0
2018-Jun-17 15:30N 29°47' W 092°11'0 0.0
2018-Jun-17 15:00N 29°47' W 092°11'1 2.2
2018-Jun-17 14:30N 29°46' W 092°11'5 9.2
2018-Jun-17 14:00N 29°42' W 092°15'5 9.4
2018-Jun-17 13:30N 29°38' W 092°16'1 0.2
2018-Jun-17 08:00N 29°37' W 092°17'510.1
2018-Jun-17 07:30N 29°42' W 092°15'5 9.8
2018-Jun-17 07:00N 29°46' W 092°12'1 2.7
2018-Jun-17 06:30N 29°47' W 092°11'0 0.0
2018-Jun-17 06:00N 29°47' W 092°11'0 0.1
2018-Jun-17 05:30N 29°47' W 092°11'0 0.2
2018-Jun-17 04:59N 29°47' W 092°11'3 6.2
2018-Jun-17 04:30N 29°45' W 092°13'510.1
2018-Jun-17 04:00N 29°40' W 092°15'4 0.2
2018-Jun-16 10:29N 29°36' W 092°17'5 9.9
2018-Jun-16 10:00N 29°41' W 092°15'5 9.3
2018-Jun-16 09:30N 29°45' W 092°13'2 3.8
2018-Jun-16 08:56N 29°47' W 092°11'0 0.0
2018-Jun-16 08:29N 29°47' W 092°11'0 0.0
2018-Jun-16 07:59N 29°47' W 092°11'0 0.0
2018-Jun-16 07:29N 29°47' W 092°11'0 0.0
2018-Jun-16 06:59N 29°47' W 092°11'0 0.1
2018-Jun-16 06:30N 29°47' W 092°11'0 0.1
2018-Jun-16 05:58N 29°47' W 092°11'0 0.0
2018-Jun-16 05:28N 29°47' W 092°11'0 0.0
2018-Jun-16 04:58N 29°47' W 092°11'0 0.0
2018-Jun-16 04:28N 29°47' W 092°11'1 1.7
2018-Jun-16 04:00N 29°46' W 092°11'510.5
2018-Jun-16 03:30N 29°43' W 092°15'510.7
2018-Jun-16 03:00N 29°37' W 092°16'1 0.0
2018-Jun-15 06:36N 29°37' W 092°17'1 9.6
2018-Jun-15 06:30N 29°38' W 092°16'5 9.0
2018-Jun-15 06:00N 29°42' W 092°15'4 9.0
2018-Jun-15 05:30N 29°46' W 092°12'1 2.8
2018-Jun-15 05:00N 29°47' W 092°11'0 0.0
2018-Jun-15 04:30N 29°47' W 092°11'0 0.0
2018-Jun-15 04:00N 29°47' W 092°11'0 0.0
2018-Jun-15 03:30N 29°47' W 092°11'0 0.0
2018-Jun-15 03:00N 29°47' W 092°11'0 0.0
2018-Jun-15 02:30N 29°47' W 092°11'0 0.0
2018-Jun-15 02:00N 29°47' W 092°11'0 0.0
2018-Jun-15 01:30N 29°47' W 092°11'0 0.1
2018-Jun-15 01:00N 29°47' W 092°11'0 0.0
2018-Jun-15 00:30N 29°47' W 092°11'0 0.0
2018-Jun-14 23:57N 29°47' W 092°11'0 0.0
2018-Jun-14 23:30N 29°47' W 092°11'0 0.0
2018-Jun-14 23:00N 29°47' W 092°11'0 0.0
2018-Jun-14 22:30N 29°47' W 092°11'0 0.0
2018-Jun-14 22:00N 29°47' W 092°11'  
Track history (hours):
 
Tides and Currents Weather Stations Pressure Air Temp Water Temp Dewpoint Dewpoint Depression Visibility Wind Speed Wind Dir Waves Ship Positions

M/V Raymond M.

Owner: RM Leasing, Clute, TX. More information available from US FCC via Universal Licensing System and Coast Guard Vessel Documentation Center.

Last reported at 2018-Jun-24 20:29 UTC. Time now 2018-Jun-24 20:39 UTC.
Position N 29°47' W 092°11'.

Length 45 m; draft 2.2 m.

Type: Passenger vessel. MMSI: 367021170.

Date/timePositionNaut miles runAvg speedWind from/ knotsBaromVisibWave heightAir tempDewpointWater temp
2018-Jun-24 20:29N 29°47' W 092°11'0 0.0
2018-Jun-24 19:59N 29°47' W 092°11'0 0.0
2018-Jun-24 19:29N 29°47' W 092°11'0 0.0
2018-Jun-24 18:59N 29°47' W 092°11'1 2.7
2018-Jun-24 18:30N 29°46' W 092°12'611.3
2018-Jun-24 18:00N 29°41' W 092°15'2 0.2
2018-Jun-24 05:28N 29°39' W 092°16'510.8
2018-Jun-24 05:01N 29°44' W 092°15'4 8.6
2018-Jun-24 04:31N 29°47' W 092°11'0 0.9
2018-Jun-24 04:01N 29°47' W 092°11'0 0.0
2018-Jun-24 03:31N 29°47' W 092°11'0 0.0
2018-Jun-24 03:01N 29°47' W 092°11'0 0.1
2018-Jun-24 02:30N 29°47' W 092°11'0 0.0
2018-Jun-24 02:00N 29°47' W 092°11'0 0.0
2018-Jun-24 01:30N 29°47' W 092°11'0 0.0
2018-Jun-24 00:11N 29°47' W 092°11'1 3.0
2018-Jun-24 00:01N 29°47' W 092°11'5 9.5
2018-Jun-23 23:30N 29°43' W 092°15'6 0.5
2018-Jun-23 10:42N 29°37' W 092°17'311.2
2018-Jun-23 10:27N 29°40' W 092°15'510.9
2018-Jun-23 09:59N 29°45' W 092°13'3 0.3
2018-Jun-22 23:51N 29°47' W 092°11'1 2.3
2018-Jun-22 23:30N 29°46' W 092°11'510.8
2018-Jun-22 23:00N 29°42' W 092°15'5 0.4
2018-Jun-22 08:54N 29°37' W 092°17'410.9
2018-Jun-22 08:30N 29°41' W 092°15'510.7
2018-Jun-22 08:00N 29°46' W 092°12'1 3.0
2018-Jun-22 07:30N 29°47' W 092°11'0 0.0
2018-Jun-22 06:58N 29°47' W 092°11'0 0.0
2018-Jun-22 06:28N 29°47' W 092°11'0 0.0
2018-Jun-22 05:58N 29°47' W 092°11'0 0.0
2018-Jun-21 08:02N 29°47' W 092°11'0 0.0
2018-Jun-21 07:59N 29°47' W 092°11'0 0.0
2018-Jun-21 07:29N 29°47' W 092°11'0 0.0
2018-Jun-21 06:59N 29°47' W 092°11'0 0.0
2018-Jun-21 06:29N 29°47' W 092°11'0 0.0
2018-Jun-21 05:59N 29°47' W 092°11'0 0.0
2018-Jun-21 05:29N 29°47' W 092°11'0 0.0
2018-Jun-21 04:59N 29°47' W 092°11'0 0.0
2018-Jun-21 04:29N 29°47' W 092°11'0 0.0
2018-Jun-21 03:59N 29°47' W 092°11'0 0.0
2018-Jun-21 03:29N 29°47' W 092°11'0 0.0
2018-Jun-21 02:59N 29°47' W 092°11'0 0.0
2018-Jun-21 02:29N 29°47' W 092°11'0 0.0
2018-Jun-21 01:59N 29°47' W 092°11'0 0.0
2018-Jun-21 01:29N 29°47' W 092°11'0 0.0
2018-Jun-21 00:59N 29°47' W 092°11'0 0.0
2018-Jun-21 00:29N 29°47' W 092°11'0 0.0
2018-Jun-20 23:59N 29°47' W 092°11'0 0.0
2018-Jun-20 23:29N 29°47' W 092°11'0 0.0
2018-Jun-20 22:59N 29°47' W 092°11'0 0.0
2018-Jun-20 22:29N 29°47' W 092°11'0 0.0
2018-Jun-20 21:59N 29°47' W 092°11'0 0.0
2018-Jun-20 21:29N 29°47' W 092°11'0 0.0
2018-Jun-20 20:59N 29°47' W 092°11'0 0.2
2018-Jun-20 20:29N 29°47' W 092°11'2 5.2
2018-Jun-20 20:00N 29°45' W 092°13'710.0
2018-Jun-20 19:18N 29°38' W 092°16'2 0.2
2018-Jun-20 07:28N 29°36' W 092°17'510.6
2018-Jun-20 07:00N 29°41' W 092°15'5 9.4
2018-Jun-20 06:30N 29°45' W 092°13'2 0.5
2018-Jun-20 01:46N 29°47' W 092°11'0 0.2
2018-Jun-20 01:28N 29°47' W 092°11'0 0.0
2018-Jun-20 00:58N 29°47' W 092°11'0 0.0
2018-Jun-20 00:28N 29°47' W 092°11'0 0.0
2018-Jun-19 23:58N 29°47' W 092°11'0 0.0
2018-Jun-19 23:30N 29°47' W 092°11'3 5.6
2018-Jun-19 23:00N 29°45' W 092°13'5 9.7
2018-Jun-19 22:29N 29°40' W 092°15'3 0.2
2018-Jun-19 06:14N 29°37' W 092°17'210.4
2018-Jun-19 06:01N 29°39' W 092°16'5 9.4
2018-Jun-19 05:31N 29°44' W 092°14'4 8.5
2018-Jun-19 05:01N 29°47' W 092°11'0 0.8
2018-Jun-19 04:28N 29°47' W 092°11'0 0.0
2018-Jun-19 03:58N 29°47' W 092°11'0 0.0
2018-Jun-19 03:28N 29°47' W 092°11'0 0.0
2018-Jun-19 02:58N 29°47' W 092°11'0 0.0
2018-Jun-19 02:28N 29°47' W 092°11'0 0.0
2018-Jun-19 01:58N 29°47' W 092°11'0 0.0
2018-Jun-19 01:28N 29°47' W 092°11'0 0.0
2018-Jun-19 00:58N 29°47' W 092°11'0 0.0
2018-Jun-19 00:28N 29°47' W 092°11'0 0.0
2018-Jun-18 23:58N 29°47' W 092°11'0 0.0
2018-Jun-18 23:28N 29°47' W 092°11'0 0.0
2018-Jun-18 22:58N 29°47' W 092°11'0 0.0
2018-Jun-18 22:28N 29°47' W 092°11'0 0.0
2018-Jun-18 21:58N 29°47' W 092°11'0 0.0
2018-Jun-18 21:28N 29°47' W 092°11'0 0.0
2018-Jun-18 20:58N 29°47' W 092°11'0 0.0
2018-Jun-18 20:28N 29°47' W 092°11'0 0.0
2018-Jun-18 19:58N 29°47' W 092°11'0 0.0
2018-Jun-18 19:28N 29°47' W 092°11'0 0.0
2018-Jun-18 18:58N 29°47' W 092°11'0 0.0
2018-Jun-18 18:28N 29°47' W 092°11'0 0.0
2018-Jun-18 17:58N 29°47' W 092°11'0 0.1
2018-Jun-18 17:30N 29°47' W 092°11'0 0.3
2018-Jun-18 17:00N 29°47' W 092°11'0 0.0
2018-Jun-18 16:30N 29°47' W 092°11'0 0.0
2018-Jun-18 16:00N 29°47' W 092°11'0 0.0
2018-Jun-18 15:30N 29°47' W 092°11'0 0.0
2018-Jun-18 15:00N 29°47' W 092°11'0 0.0
2018-Jun-18 14:30N 29°47' W 092°11'0 0.0
2018-Jun-18 14:00N 29°47' W 092°11'0 0.0
2018-Jun-18 13:30N 29°47' W 092°11'0 0.0
2018-Jun-18 13:00N 29°47' W 092°11'0 0.0
2018-Jun-18 12:30N 29°47' W 092°11'0 0.0
2018-Jun-18 12:00N 29°47' W 092°11'0 0.0
2018-Jun-18 11:24N 29°47' W 092°11'0 0.0
2018-Jun-18 11:00N 29°47' W 092°11'0 0.0
2018-Jun-18 10:30N 29°47' W 092°11'0 0.0
2018-Jun-18 10:00N 29°47' W 092°11'0 0.0
2018-Jun-18 09:30N 29°47' W 092°11'0 0.0
2018-Jun-18 09:00N 29°47' W 092°11'0 0.0
2018-Jun-18 08:30N 29°47' W 092°11'0 0.0
2018-Jun-18 08:00N 29°47' W 092°11'0 0.0
2018-Jun-18 07:30N 29°47' W 092°11'0 0.0
2018-Jun-18 07:00N 29°47' W 092°11'0 0.0
2018-Jun-18 06:30N 29°47' W 092°11'0 0.0
2018-Jun-18 06:00N 29°47' W 092°11'0 0.0
2018-Jun-18 05:30N 29°47' W 092°11'0 0.0
2018-Jun-18 05:00N 29°47' W 092°11'0 0.0
2018-Jun-18 04:30N 29°47' W 092°11'0 0.0
2018-Jun-18 03:57N 29°47' W 092°11'0 0.0
2018-Jun-18 03:30N 29°47' W 092°11'0 0.0
2018-Jun-18 03:00N 29°47' W 092°11'0 0.0
2018-Jun-18 02:30N 29°47' W 092°11'0 0.0
2018-Jun-18 02:00N 29°47' W 092°11'0 0.0
2018-Jun-18 01:30N 29°47' W 092°11'0 0.0
2018-Jun-18 01:00N 29°47' W 092°11'0 0.0
2018-Jun-18 00:30N 29°47' W 092°11'0 0.0
2018-Jun-18 00:00N 29°47' W 092°11'0 0.0
2018-Jun-17 23:30N 29°47' W 092°11'0 0.0
2018-Jun-17 23:00N 29°47' W 092°11'0 0.0
2018-Jun-17 22:30N 29°47' W 092°11'0 0.0
2018-Jun-17 21:59N 29°47' W 092°11'0 0.0
2018-Jun-17 21:29N 29°47' W 092°11'0 0.0
2018-Jun-17 20:59N 29°47' W 092°11'0 0.0
2018-Jun-17 20:29N 29°47' W 092°11'0 0.0
2018-Jun-17 19:59N 29°47' W 092°11'0 0.0
2018-Jun-17 19:29N 29°47' W 092°11'0 0.0
2018-Jun-17 18:59N 29°47' W 092°11'0 0.0
2018-Jun-17 18:29N 29°47' W 092°11'0 0.0
2018-Jun-17 17:59N 29°47' W 092°11'0 0.0
2018-Jun-17 17:29N 29°47' W 092°11'0 0.0
2018-Jun-17 16:59N 29°47' W 092°11'0 0.0
2018-Jun-17 16:29N 29°47' W 092°11'0 0.0
2018-Jun-17 15:59N 29°47' W 092°11'0 0.0
2018-Jun-17 15:30N 29°47' W 092°11'0 0.0
2018-Jun-17 15:00N 29°47' W 092°11'1 2.2
2018-Jun-17 14:30N 29°46' W 092°11'5 9.2
2018-Jun-17 14:00N 29°42' W 092°15'5 9.4
2018-Jun-17 13:30N 29°38' W 092°16'1 0.2
2018-Jun-17 08:00N 29°37' W 092°17'510.1
2018-Jun-17 07:30N 29°42' W 092°15'5 9.8
2018-Jun-17 07:00N 29°46' W 092°12'1 2.7
2018-Jun-17 06:30N 29°47' W 092°11'0 0.0
2018-Jun-17 06:00N 29°47' W 092°11'0 0.1
2018-Jun-17 05:30N 29°47' W 092°11'0 0.2
2018-Jun-17 04:59N 29°47' W 092°11'3 6.2
2018-Jun-17 04:30N 29°45' W 092°13'510.1
2018-Jun-17 04:00N 29°40' W 092°15'4 0.2
2018-Jun-16 10:29N 29°36' W 092°17'5 9.9
2018-Jun-16 10:00N 29°41' W 092°15'5 9.3
2018-Jun-16 09:30N 29°45' W 092°13'2 3.8
2018-Jun-16 08:56N 29°47' W 092°11'0 0.0
2018-Jun-16 08:29N 29°47' W 092°11'0 0.0
2018-Jun-16 07:59N 29°47' W 092°11'0 0.0
2018-Jun-16 07:29N 29°47' W 092°11'0 0.0
2018-Jun-16 06:59N 29°47' W 092°11'0 0.1
2018-Jun-16 06:30N 29°47' W 092°11'0 0.1
2018-Jun-16 05:58N 29°47' W 092°11'0 0.0
2018-Jun-16 05:28N 29°47' W 092°11'0 0.0
2018-Jun-16 04:58N 29°47' W 092°11'0 0.0
2018-Jun-16 04:28N 29°47' W 092°11'1 1.7
2018-Jun-16 04:00N 29°46' W 092°11'510.5
2018-Jun-16 03:30N 29°43' W 092°15'510.7
2018-Jun-16 03:00N 29°37' W 092°16'1 0.0
2018-Jun-15 06:36N 29°37' W 092°17'1 9.6
2018-Jun-15 06:30N 29°38' W 092°16'5 9.0
2018-Jun-15 06:00N 29°42' W 092°15'4 9.0
2018-Jun-15 05:30N 29°46' W 092°12'1 2.8
2018-Jun-15 05:00N 29°47' W 092°11'0 0.0
2018-Jun-15 04:30N 29°47' W 092°11'0 0.0
2018-Jun-15 04:00N 29°47' W 092°11'0 0.0
2018-Jun-15 03:30N 29°47' W 092°11'0 0.0
2018-Jun-15 03:00N 29°47' W 092°11'0 0.0
2018-Jun-15 02:30N 29°47' W 092°11'0 0.0
2018-Jun-15 02:00N 29°47' W 092°11'0 0.0
2018-Jun-15 01:30N 29°47' W 092°11'0 0.1
2018-Jun-15 01:00N 29°47' W 092°11'0 0.0
2018-Jun-15 00:30N 29°47' W 092°11'0 0.0
2018-Jun-14 23:57N 29°47' W 092°11'0 0.0
2018-Jun-14 23:30N 29°47' W 092°11'0 0.0
2018-Jun-14 23:00N 29°47' W 092°11'0 0.0
2018-Jun-14 22:30N 29°47' W 092°11'0 0.0
2018-Jun-14 22:00N 29°47' W 092°11'  

Dump ship's entire track history